Pagina principală
METAR-TAF:

METAR-TAF

Aeroporturi :

Ohrida, Macedonia

Latitudine: 41-07N, longitudine: 020-48E, elevație: 760 m

Observații meteo curente

Raportul a fost făcut în urmă cu 6 ore și 37 de minute, la 18:50 UTC
Vânt 7 kt de la Nord/Nord-vest, variabil între Vest/Nord-vest și Nord
Temperatură 7°C
Umiditate 76%
Presiune 1008 hPa
Vizibilitate de 10 km sau mai mult
Nori fragmentați la o înălțime de 4000 picior

METAR: LWOH 191850Z 33007KT 300V360 9999 BKN040 07/03 Q1008

Ora: 03:27 (01:27 UTC)

Prognoză

Raportul a fost făcut în urmă cu 2 ore și 22 de minute, la 23:05 UTC
Prognoză valabilă de la 20 ora 00 UTC la 20 ora 24 UTC
Vânt 5 kt de la Nord/Nord-vest
Vizibilitate de 10 km sau mai mult
Nori fragmentați la o înălțime de 4000 picior

TAF: LWOH 192305Z 2000/2024 34005KT 9999 BKN040

Observații și prognoze meteo pentru peste 4.000 de aeroporturi (rapoarte METAR și TAF).

Stațiile disponibile sunt reprezentate pe hartă prin puncte galbene și roșii.

Țineți indicatorul mouse-ului pe punctul dorit pentru a vedea denumirea stației.

Apoi, faceți clic pentru a vedea observațiile și prognozele meteorologice.

Pentru a schimba harta: Pentru mărire, faceți clic pe butoanele verzi cu cruce neagră; pentru micșorare, pe butonul verde cu o liniuță; pentru hărți învecinate, pe săgețile verzi.


METAR-TAF: